CDT,Max TemperatureF,Mean TemperatureF,Min TemperatureF,Max Dew PointF,MeanDew PointF,Min DewpointF,Max Humidity, Mean Humidity, Min Humidity, Max Sea Level PressureIn, Mean Sea Level PressureIn, Min Sea Level PressureIn, Max VisibilityMiles, Mean VisibilityMiles, Min VisibilityMiles, Max Wind SpeedMPH, Mean Wind SpeedMPH, Max Gust SpeedMPH,PrecipitationIn, CloudCover, Events, WindDirDegrees
2013-4-1,40,28,16,21,17,14,84,61,37,30.40,30.33,30.24,10,10,10,15,7,18,0.00,0,,333
2013-4-2,50,35,20,25,22,16,91,65,38,30.37,30.32,30.28,10,10,10,10,4,14,0.00,3,,99
2013-4-3,60,43,26,28,26,22,84,56,28,30.36,30.28,30.17,10,10,10,24,14,31,0.00,0,,169
2013-4-4,61,47,33,34,28,22,76,49,22,30.18,30.14,30.09,10,10,10,18,9,25,0.00,2,,6
2013-4-5,64,47,29,38,31,25,85,60,34,30.20,30.00,29.68,10,10,10,30,13,38,0.00,1,,129
2013-4-6,70,54,37,42,38,35,71,50,28,29.81,29.64,29.57,10,10,10,30,13,37,T,3,Rain,306
2013-4-7,67,51,34,50,40,31,93,67,40,29.90,29.78,29.64,10,9,5,28,9,33,0.03,4,Rain,86
2013-4-8,74,54,33,52,44,34,100,71,41,29.81,29.68,29.63,10,5,0,29,8,37,T,3,Fog,111
2013-4-9,47,40,32,45,34,29,96,91,85,30.09,29.90,29.66,10,6,2,30,19,40,2.33,8,Rain-Thunderstorm,16
2013-4-10,34,33,31,34,32,30,100,94,84,30.05,29.95,29.83,10,5,1,23,11,30,0.20,8,Rain-Snow,12
2013-4-11,36,33,30,34,30,28,100,94,87,29.83,29.70,29.61,10,4,1,23,11,29,0.14,8,Snow,309
2013-4-12,35,33,30,31,27,23,96,81,62,30.01,29.87,29.71,10,10,5,22,14,26,T,8,Rain,312
2013-4-13,50,38,26,36,30,22,85,70,49,30.04,29.92,29.71,10,10,10,22,10,29,0.00,4,,156
2013-4-14,61,49,36,52,41,33,89,72,54,29.67,29.48,29.32,10,10,5,28,17,35,0.26,5,Rain,188
2013-4-15,48,40,31,30,27,22,75,64,53,30.13,29.88,29.66,10,10,10,23,13,30,0.00,3,,305
2013-4-16,51,42,33,30,28,26,82,62,42,30.28,30.21,30.12,10,10,10,18,11,24,0.00,3,,13
2013-4-17,40,37,34,39,35,30,100,88,76,30.24,30.01,29.86,10,6,2,26,15,32,0.67,8,Rain,29
2013-4-18,35,33,30,32,29,26,100,93,85,29.92,29.82,29.74,10,3,0,33,22,41,0.47,8,Fog-Snow,331
2013-4-19,43,35,26,28,23,18,75,62,48,30.14,29.96,29.85,10,10,10,29,17,36,0.00,1,,317
2013-4-20,44,33,22,28,23,20,88,69,49,30.30,30.22,30.16,10,10,10,17,6,22,T,5,,135
2013-4-21,65,51,36,47,37,27,86,63,40,30.18,30.10,30.01,10,10,8,24,13,31,0.03,6,Rain,123
2013-4-22,42,36,29,37,32,25,100,88,76,30.30,30.14,30.07,10,6,0,28,15,33,0.59,8,Fog-Rain-Snow,14
2013-4-23,36,31,26,27,23,20,85,74,63,30.32,30.26,30.20,10,10,10,22,13,26,0.00,2,,333
2013-4-24,56,40,24,39,27,20,85,62,38,30.21,30.14,30.04,10,10,10,38,10,49,0.01,1,,270
2013-4-25,71,48,25,37,31,23,92,59,25,30.27,30.14,29.96,10,10,10,29,10,40,0.00,0,,181
2013-4-26,75,59,43,44,36,31,71,46,21,30.17,30.05,29.98,10,10,10,20,8,25,0.00,0,,110
2013-4-27,75,56,36,49,43,37,100,67,33,30.17,30.07,29.92,10,7,0,15,7,18,0.00,1,Fog,140
2013-4-28,86,65,44,50,46,42,93,58,23,29.93,29.77,29.64,10,10,6,21,13,28,0.00,0,,154
2013-4-29,82,66,50,51,45,41,74,48,16,29.81,29.66,29.44,10,10,10,21,10,25,0.00,0,,96
2013-4-30,74,62,49,55,41,24,66,42,18,30.00,29.72,29.40,10,10,9,26,15,33,0.12,3,Rain-Thunderstorm,3